sensor_id;sensor_type;location;lat;lon;timestamp;P1;durP1;ratioP1;P2;durP2;ratioP2
17330;SDS011;8783;52.448;4.638;2023-08-07T00:01:02;11.05;;;3.00;;
17330;SDS011;8783;52.448;4.638;2023-08-07T00:03:28;13.02;;;2.95;;
17330;SDS011;8783;52.448;4.638;2023-08-07T00:05:53;10.48;;;2.80;;
17330;SDS011;8783;52.448;4.638;2023-08-07T00:08:20;9.77;;;3.10;;
17330;SDS011;8783;52.448;4.638;2023-08-07T00:10:46;11.57;;;3.65;;
17330;SDS011;8783;52.448;4.638;2023-08-07T00:13:13;11.60;;;2.95;;
17330;SDS011;8783;52.448;4.638;2023-08-07T00:15:39;13.55;;;3.33;;
17330;SDS011;8783;52.448;4.638;2023-08-07T00:18:04;14.05;;;2.85;;
17330;SDS011;8783;52.448;4.638;2023-08-07T00:20:30;11.77;;;2.92;;
17330;SDS011;8783;52.448;4.638;2023-08-07T00:22:56;10.18;;;3.22;;
17330;SDS011;8783;52.448;4.638;2023-08-07T00:25:21;10.23;;;3.10;;
17330;SDS011;8783;52.448;4.638;2023-08-07T00:27:47;12.07;;;3.22;;
17330;SDS011;8783;52.448;4.638;2023-08-07T00:30:13;13.70;;;3.15;;
17330;SDS011;8783;52.448;4.638;2023-08-07T00:32:39;7.80;;;2.42;;
17330;SDS011;8783;52.448;4.638;2023-08-07T00:35:05;11.90;;;3.28;;
17330;SDS011;8783;52.448;4.638;2023-08-07T00:37:33;12.98;;;3.53;;
17330;SDS011;8783;52.448;4.638;2023-08-07T00:39:58;7.63;;;2.53;;
17330;SDS011;8783;52.448;4.638;2023-08-07T00:42:24;10.02;;;2.95;;
17330;SDS011;8783;52.448;4.638;2023-08-07T00:44:50;9.07;;;2.75;;
17330;SDS011;8783;52.448;4.638;2023-08-07T00:47:15;8.48;;;2.95;;
17330;SDS011;8783;52.448;4.638;2023-08-07T00:49:41;8.30;;;2.90;;
17330;SDS011;8783;52.448;4.638;2023-08-07T00:52:07;9.93;;;2.97;;
17330;SDS011;8783;52.448;4.638;2023-08-07T00:54:33;10.18;;;3.28;;
17330;SDS011;8783;52.448;4.638;2023-08-07T00:56:59;9.65;;;2.88;;
17330;SDS011;8783;52.448;4.638;2023-08-07T00:59:38;8.50;;;3.15;;
17330;SDS011;8783;52.448;4.638;2023-08-07T01:02:04;8.68;;;2.60;;
17330;SDS011;8783;52.448;4.638;2023-08-07T01:04:30;10.55;;;2.83;;
17330;SDS011;8783;52.448;4.638;2023-08-07T01:06:56;9.85;;;2.50;;
17330;SDS011;8783;52.448;4.638;2023-08-07T01:09:22;11.35;;;2.33;;
17330;SDS011;8783;52.448;4.638;2023-08-07T01:11:48;9.23;;;2.75;;
17330;SDS011;8783;52.448;4.638;2023-08-07T01:14:36;9.57;;;2.47;;
17330;SDS011;8783;52.448;4.638;2023-08-07T01:17:21;8.55;;;2.60;;
17330;SDS011;8783;52.448;4.638;2023-08-07T01:19:49;11.05;;;2.67;;
17330;SDS011;8783;52.448;4.638;2023-08-07T01:22:18;10.30;;;2.67;;
17330;SDS011;8783;52.448;4.638;2023-08-07T01:24:45;9.07;;;2.30;;
17330;SDS011;8783;52.448;4.638;2023-08-07T01:32:24;8.50;;;3.10;;
17330;SDS011;8783;52.448;4.638;2023-08-07T01:34:54;10.75;;;3.00;;
17330;SDS011;8783;52.448;4.638;2023-08-07T01:37:21;10.48;;;2.72;;
17330;SDS011;8783;52.448;4.638;2023-08-07T01:39:49;10.63;;;2.95;;
17330;SDS011;8783;52.448;4.638;2023-08-07T01:42:16;9.68;;;2.80;;
17330;SDS011;8783;52.448;4.638;2023-08-07T01:44:42;7.35;;;2.58;;
17330;SDS011;8783;52.448;4.638;2023-08-07T01:47:07;8.27;;;2.80;;
17330;SDS011;8783;52.448;4.638;2023-08-07T01:49:33;9.93;;;2.83;;
17330;SDS011;8783;52.448;4.638;2023-08-07T01:51:59;12.35;;;2.78;;
17330;SDS011;8783;52.448;4.638;2023-08-07T01:54:24;10.15;;;2.63;;
17330;SDS011;8783;52.448;4.638;2023-08-07T01:56:50;10.60;;;2.42;;
17330;SDS011;8783;52.448;4.638;2023-08-07T01:59:15;11.40;;;2.67;;
17330;SDS011;8783;52.448;4.638;2023-08-07T02:01:41;9.25;;;2.80;;
17330;SDS011;8783;52.448;4.638;2023-08-07T02:04:07;8.02;;;2.38;;
17330;SDS011;8783;52.448;4.638;2023-08-07T02:06:32;11.48;;;2.90;;
17330;SDS011;8783;52.448;4.638;2023-08-07T02:08:58;10.35;;;2.40;;
17330;SDS011;8783;52.448;4.638;2023-08-07T02:11:23;9.43;;;2.40;;
17330;SDS011;8783;52.448;4.638;2023-08-07T02:13:49;8.73;;;2.63;;
17330;SDS011;8783;52.448;4.638;2023-08-07T02:16:15;6.63;;;2.45;;
17330;SDS011;8783;52.448;4.638;2023-08-07T02:18:40;10.98;;;2.45;;
17330;SDS011;8783;52.448;4.638;2023-08-07T02:21:06;11.73;;;2.50;;
17330;SDS011;8783;52.448;4.638;2023-08-07T02:23:31;13.52;;;3.22;;
17330;SDS011;8783;52.448;4.638;2023-08-07T02:25:57;13.77;;;2.90;;
17330;SDS011;8783;52.448;4.638;2023-08-07T02:28:23;13.05;;;3.00;;
17330;SDS011;8783;52.448;4.638;2023-08-07T02:30:48;11.80;;;2.70;;
17330;SDS011;8783;52.448;4.638;2023-08-07T02:33:16;11.38;;;3.20;;
17330;SDS011;8783;52.448;4.638;2023-08-07T02:35:42;8.55;;;2.47;;
17330;SDS011;8783;52.448;4.638;2023-08-07T02:38:07;8.30;;;2.67;;
17330;SDS011;8783;52.448;4.638;2023-08-07T02:40:33;13.18;;;3.05;;
17330;SDS011;8783;52.448;4.638;2023-08-07T02:42:59;13.60;;;3.65;;
17330;SDS011;8783;52.448;4.638;2023-08-07T02:45:24;10.15;;;3.13;;
17330;SDS011;8783;52.448;4.638;2023-08-07T02:47:50;12.18;;;2.97;;
17330;SDS011;8783;52.448;4.638;2023-08-07T02:50:16;10.75;;;3.13;;
17330;SDS011;8783;52.448;4.638;2023-08-07T02:52:41;8.77;;;2.72;;
17330;SDS011;8783;52.448;4.638;2023-08-07T02:55:07;14.60;;;3.28;;
17330;SDS011;8783;52.448;4.638;2023-08-07T02:57:33;8.60;;;2.60;;
17330;SDS011;8783;52.448;4.638;2023-08-07T02:59:58;9.63;;;2.70;;
17330;SDS011;8783;52.448;4.638;2023-08-07T03:02:24;9.95;;;2.60;;
17330;SDS011;8783;52.448;4.638;2023-08-07T03:04:50;8.75;;;2.58;;
17330;SDS011;8783;52.448;4.638;2023-08-07T03:07:15;15.02;;;2.97;;
17330;SDS011;8783;52.448;4.638;2023-08-07T03:09:41;10.68;;;3.35;;
17330;SDS011;8783;52.448;4.638;2023-08-07T03:12:11;11.60;;;3.20;;
17330;SDS011;8783;52.448;4.638;2023-08-07T03:14:37;10.93;;;2.70;;
17330;SDS011;8783;52.448;4.638;2023-08-07T03:17:02;11.32;;;2.95;;
17330;SDS011;8783;52.448;4.638;2023-08-07T03:19:28;9.35;;;2.95;;
17330;SDS011;8783;52.448;4.638;2023-08-07T03:21:53;11.23;;;3.05;;
17330;SDS011;8783;52.448;4.638;2023-08-07T03:24:19;9.55;;;2.90;;
17330;SDS011;8783;52.448;4.638;2023-08-07T03:26:45;12.60;;;2.75;;
17330;SDS011;8783;52.448;4.638;2023-08-07T03:29:12;10.50;;;2.20;;
17330;SDS011;8783;52.448;4.638;2023-08-07T03:31:38;10.65;;;3.00;;
17330;SDS011;8783;52.448;4.638;2023-08-07T03:34:03;8.73;;;2.65;;
17330;SDS011;8783;52.448;4.638;2023-08-07T03:36:29;8.98;;;2.85;;
17330;SDS011;8783;52.448;4.638;2023-08-07T03:38:55;8.48;;;2.83;;
17330;SDS011;8783;52.448;4.638;2023-08-07T03:41:20;13.32;;;3.25;;
17330;SDS011;8783;52.448;4.638;2023-08-07T03:43:46;12.43;;;2.58;;
17330;SDS011;8783;52.448;4.638;2023-08-07T03:46:11;10.45;;;2.85;;
17330;SDS011;8783;52.448;4.638;2023-08-07T03:48:38;8.00;;;2.42;;
17330;SDS011;8783;52.448;4.638;2023-08-07T03:51:04;12.18;;;3.10;;
17330;SDS011;8783;52.448;4.638;2023-08-07T03:53:33;11.45;;;2.80;;
17330;SDS011;8783;52.448;4.638;2023-08-07T03:55:58;8.75;;;2.78;;
17330;SDS011;8783;52.448;4.638;2023-08-07T03:58:24;10.35;;;2.78;;
17330;SDS011;8783;52.448;4.638;2023-08-07T04:00:50;10.25;;;2.95;;
17330;SDS011;8783;52.448;4.638;2023-08-07T04:03:16;11.38;;;3.25;;
17330;SDS011;8783;52.448;4.638;2023-08-07T04:05:43;9.55;;;3.22;;
17330;SDS011;8783;52.448;4.638;2023-08-07T04:08:09;15.25;;;3.50;;
17330;SDS011;8783;52.448;4.638;2023-08-07T04:10:34;11.02;;;3.42;;
17330;SDS011;8783;52.448;4.638;2023-08-07T04:13:00;10.65;;;2.85;;
17330;SDS011;8783;52.448;4.638;2023-08-07T04:15:26;16.77;;;3.50;;
17330;SDS011;8783;52.448;4.638;2023-08-07T04:17:51;11.13;;;3.03;;
17330;SDS011;8783;52.448;4.638;2023-08-07T04:20:17;15.75;;;3.75;;
17330;SDS011;8783;52.448;4.638;2023-08-07T04:22:44;11.45;;;3.10;;
17330;SDS011;8783;52.448;4.638;2023-08-07T04:25:11;12.55;;;3.85;;
17330;SDS011;8783;52.448;4.638;2023-08-07T04:27:36;11.18;;;3.30;;
17330;SDS011;8783;52.448;4.638;2023-08-07T04:30:03;13.90;;;3.05;;
17330;SDS011;8783;52.448;4.638;2023-08-07T04:32:30;14.63;;;3.42;;
17330;SDS011;8783;52.448;4.638;2023-08-07T04:34:55;12.73;;;3.60;;
17330;SDS011;8783;52.448;4.638;2023-08-07T04:37:21;15.15;;;4.07;;
17330;SDS011;8783;52.448;4.638;2023-08-07T04:39:47;13.07;;;3.47;;
17330;SDS011;8783;52.448;4.638;2023-08-07T04:42:13;13.23;;;3.10;;
17330;SDS011;8783;52.448;4.638;2023-08-07T04:44:38;14.18;;;3.47;;
17330;SDS011;8783;52.448;4.638;2023-08-07T04:47:04;12.25;;;3.05;;
17330;SDS011;8783;52.448;4.638;2023-08-07T04:49:30;11.52;;;3.55;;
17330;SDS011;8783;52.448;4.638;2023-08-07T04:51:56;13.73;;;3.00;;
17330;SDS011;8783;52.448;4.638;2023-08-07T04:54:21;11.85;;;3.50;;
17330;SDS011;8783;52.448;4.638;2023-08-07T04:56:47;12.43;;;3.17;;
17330;SDS011;8783;52.448;4.638;2023-08-07T04:59:13;12.45;;;3.17;;
17330;SDS011;8783;52.448;4.638;2023-08-07T05:01:39;9.38;;;2.95;;
17330;SDS011;8783;52.448;4.638;2023-08-07T05:04:05;10.77;;;3.33;;
17330;SDS011;8783;52.448;4.638;2023-08-07T05:06:31;9.35;;;2.75;;
17330;SDS011;8783;52.448;4.638;2023-08-07T05:08:56;12.52;;;3.47;;
17330;SDS011;8783;52.448;4.638;2023-08-07T05:11:22;11.70;;;3.05;;
17330;SDS011;8783;52.448;4.638;2023-08-07T05:13:48;12.85;;;3.22;;
17330;SDS011;8783;52.448;4.638;2023-08-07T05:16:13;10.88;;;3.47;;
17330;SDS011;8783;52.448;4.638;2023-08-07T05:18:39;12.05;;;3.60;;
17330;SDS011;8783;52.448;4.638;2023-08-07T05:21:04;8.07;;;3.42;;
17330;SDS011;8783;52.448;4.638;2023-08-07T05:23:33;9.48;;;3.38;;
17330;SDS011;8783;52.448;4.638;2023-08-07T05:25:59;10.38;;;3.28;;
17330;SDS011;8783;52.448;4.638;2023-08-07T05:28:24;10.45;;;3.03;;
17330;SDS011;8783;52.448;4.638;2023-08-07T05:30:50;14.50;;;3.38;;
17330;SDS011;8783;52.448;4.638;2023-08-07T05:33:16;9.20;;;3.42;;
17330;SDS011;8783;52.448;4.638;2023-08-07T05:35:41;11.15;;;2.97;;
17330;SDS011;8783;52.448;4.638;2023-08-07T05:38:07;9.80;;;3.00;;
17330;SDS011;8783;52.448;4.638;2023-08-07T05:40:33;9.57;;;2.80;;
17330;SDS011;8783;52.448;4.638;2023-08-07T05:43:01;9.98;;;2.97;;
17330;SDS011;8783;52.448;4.638;2023-08-07T05:45:27;13.23;;;3.55;;
17330;SDS011;8783;52.448;4.638;2023-08-07T05:47:53;13.25;;;3.38;;
17330;SDS011;8783;52.448;4.638;2023-08-07T05:50:18;9.63;;;2.90;;
17330;SDS011;8783;52.448;4.638;2023-08-07T05:52:44;11.55;;;3.35;;
17330;SDS011;8783;52.448;4.638;2023-08-07T05:55:10;12.18;;;3.25;;
17330;SDS011;8783;52.448;4.638;2023-08-07T05:57:36;9.85;;;3.15;;
17330;SDS011;8783;52.448;4.638;2023-08-07T06:00:02;11.35;;;3.20;;
17330;SDS011;8783;52.448;4.638;2023-08-07T06:02:28;10.75;;;2.75;;
17330;SDS011;8783;52.448;4.638;2023-08-07T06:04:53;9.25;;;2.70;;
17330;SDS011;8783;52.448;4.638;2023-08-07T06:07:19;11.55;;;3.00;;
17330;SDS011;8783;52.448;4.638;2023-08-07T06:09:45;10.48;;;2.78;;
17330;SDS011;8783;52.448;4.638;2023-08-07T06:12:11;16.73;;;3.58;;
17330;SDS011;8783;52.448;4.638;2023-08-07T06:14:37;15.98;;;3.28;;
17330;SDS011;8783;52.448;4.638;2023-08-07T06:17:08;8.68;;;2.80;;
17330;SDS011;8783;52.448;4.638;2023-08-07T06:19:34;14.95;;;3.30;;
17330;SDS011;8783;52.448;4.638;2023-08-07T06:21:59;10.43;;;3.33;;
17330;SDS011;8783;52.448;4.638;2023-08-07T06:24:25;9.10;;;2.70;;
17330;SDS011;8783;52.448;4.638;2023-08-07T06:26:51;9.63;;;2.47;;
17330;SDS011;8783;52.448;4.638;2023-08-07T06:29:16;10.82;;;2.92;;
17330;SDS011;8783;52.448;4.638;2023-08-07T06:31:42;14.48;;;3.70;;
17330;SDS011;8783;52.448;4.638;2023-08-07T06:34:08;13.10;;;2.80;;
17330;SDS011;8783;52.448;4.638;2023-08-07T06:36:34;11.65;;;3.03;;
17330;SDS011;8783;52.448;4.638;2023-08-07T06:38:59;11.15;;;2.78;;
17330;SDS011;8783;52.448;4.638;2023-08-07T06:41:25;8.60;;;2.47;;
17330;SDS011;8783;52.448;4.638;2023-08-07T06:43:51;16.00;;;3.05;;
17330;SDS011;8783;52.448;4.638;2023-08-07T06:46:16;15.63;;;3.58;;
17330;SDS011;8783;52.448;4.638;2023-08-07T06:48:43;24.67;;;6.38;;
17330;SDS011;8783;52.448;4.638;2023-08-07T06:51:08;27.10;;;5.38;;
17330;SDS011;8783;52.448;4.638;2023-08-07T06:53:34;20.75;;;4.97;;
17330;SDS011;8783;52.448;4.638;2023-08-07T06:56:00;18.23;;;4.20;;
17330;SDS011;8783;52.448;4.638;2023-08-07T06:58:25;14.90;;;4.30;;
17330;SDS011;8783;52.448;4.638;2023-08-07T07:00:51;16.27;;;4.50;;
17330;SDS011;8783;52.448;4.638;2023-08-07T07:03:17;13.90;;;4.00;;
17330;SDS011;8783;52.448;4.638;2023-08-07T07:05:42;16.67;;;3.90;;
17330;SDS011;8783;52.448;4.638;2023-08-07T07:08:11;16.85;;;3.85;;
17330;SDS011;8783;52.448;4.638;2023-08-07T07:10:40;11.93;;;3.38;;
17330;SDS011;8783;52.448;4.638;2023-08-07T07:13:06;13.23;;;4.07;;
17330;SDS011;8783;52.448;4.638;2023-08-07T07:15:34;11.48;;;3.17;;
17330;SDS011;8783;52.448;4.638;2023-08-07T07:18:00;12.88;;;2.97;;
17330;SDS011;8783;52.448;4.638;2023-08-07T07:20:26;14.43;;;3.42;;
17330;SDS011;8783;52.448;4.638;2023-08-07T07:22:52;10.63;;;3.05;;
17330;SDS011;8783;52.448;4.638;2023-08-07T07:25:18;11.85;;;3.08;;
17330;SDS011;8783;52.448;4.638;2023-08-07T07:27:43;14.50;;;3.25;;
17330;SDS011;8783;52.448;4.638;2023-08-07T07:30:09;13.70;;;3.72;;
17330;SDS011;8783;52.448;4.638;2023-08-07T07:32:35;13.15;;;3.38;;
17330;SDS011;8783;52.448;4.638;2023-08-07T07:35:01;14.65;;;3.03;;
17330;SDS011;8783;52.448;4.638;2023-08-07T07:37:27;10.15;;;3.40;;
17330;SDS011;8783;52.448;4.638;2023-08-07T07:39:53;10.40;;;3.30;;
17330;SDS011;8783;52.448;4.638;2023-08-07T07:42:18;9.90;;;3.15;;
17330;SDS011;8783;52.448;4.638;2023-08-07T07:44:44;15.38;;;3.50;;
17330;SDS011;8783;52.448;4.638;2023-08-07T07:47:10;9.35;;;2.72;;
17330;SDS011;8783;52.448;4.638;2023-08-07T07:49:35;10.15;;;2.70;;
17330;SDS011;8783;52.448;4.638;2023-08-07T07:52:01;10.10;;;2.90;;
17330;SDS011;8783;52.448;4.638;2023-08-07T07:54:28;11.43;;;2.90;;
17330;SDS011;8783;52.448;4.638;2023-08-07T07:56:54;13.10;;;2.60;;
17330;SDS011;8783;52.448;4.638;2023-08-07T07:59:20;11.50;;;2.80;;
17330;SDS011;8783;52.448;4.638;2023-08-07T08:01:48;8.25;;;2.53;;
17330;SDS011;8783;52.448;4.638;2023-08-07T08:04:14;16.58;;;3.45;;
17330;SDS011;8783;52.448;4.638;2023-08-07T08:06:40;11.23;;;2.75;;
17330;SDS011;8783;52.448;4.638;2023-08-07T08:09:05;9.77;;;2.42;;
17330;SDS011;8783;52.448;4.638;2023-08-07T08:11:34;7.35;;;2.58;;
17330;SDS011;8783;52.448;4.638;2023-08-07T08:14:02;10.82;;;2.88;;
17330;SDS011;8783;52.448;4.638;2023-08-07T08:16:27;9.65;;;2.78;;
17330;SDS011;8783;52.448;4.638;2023-08-07T08:18:53;10.90;;;2.90;;
17330;SDS011;8783;52.448;4.638;2023-08-07T08:21:21;9.43;;;2.80;;
17330;SDS011;8783;52.448;4.638;2023-08-07T08:23:47;11.18;;;2.75;;
17330;SDS011;8783;52.448;4.638;2023-08-07T08:26:12;7.72;;;2.53;;
17330;SDS011;8783;52.448;4.638;2023-08-07T08:28:38;11.65;;;2.63;;
17330;SDS011;8783;52.448;4.638;2023-08-07T08:31:04;11.35;;;2.67;;
17330;SDS011;8783;52.448;4.638;2023-08-07T08:33:33;12.55;;;2.90;;
17330;SDS011;8783;52.448;4.638;2023-08-07T08:35:59;8.18;;;2.63;;
17330;SDS011;8783;52.448;4.638;2023-08-07T08:38:25;9.55;;;2.63;;
17330;SDS011;8783;52.448;4.638;2023-08-07T08:40:54;8.75;;;2.55;;
17330;SDS011;8783;52.448;4.638;2023-08-07T08:43:20;8.02;;;2.60;;
17330;SDS011;8783;52.448;4.638;2023-08-07T08:45:46;9.48;;;2.30;;
17330;SDS011;8783;52.448;4.638;2023-08-07T08:48:13;8.88;;;2.70;;
17330;SDS011;8783;52.448;4.638;2023-08-07T08:50:47;8.00;;;2.33;;
17330;SDS011;8783;52.448;4.638;2023-08-07T08:53:15;14.43;;;3.30;;
17330;SDS011;8783;52.448;4.638;2023-08-07T08:55:41;11.75;;;2.80;;
17330;SDS011;8783;52.448;4.638;2023-08-07T08:58:08;11.73;;;2.88;;
17330;SDS011;8783;52.448;4.638;2023-08-07T09:00:34;10.50;;;2.83;;
17330;SDS011;8783;52.448;4.638;2023-08-07T09:03:00;11.20;;;2.30;;
17330;SDS011;8783;52.448;4.638;2023-08-07T09:05:26;11.25;;;3.03;;
17330;SDS011;8783;52.448;4.638;2023-08-07T09:07:56;10.60;;;3.15;;
17330;SDS011;8783;52.448;4.638;2023-08-07T09:10:22;11.20;;;2.60;;
17330;SDS011;8783;52.448;4.638;2023-08-07T09:12:53;10.50;;;2.58;;
17330;SDS011;8783;52.448;4.638;2023-08-07T09:15:29;16.50;;;2.92;;
17330;SDS011;8783;52.448;4.638;2023-08-07T09:17:57;11.18;;;3.22;;
17330;SDS011;8783;52.448;4.638;2023-08-07T09:20:24;11.02;;;2.92;;
17330;SDS011;8783;52.448;4.638;2023-08-07T09:22:50;7.28;;;2.25;;
17330;SDS011;8783;52.448;4.638;2023-08-07T09:25:32;10.18;;;2.85;;
17330;SDS011;8783;52.448;4.638;2023-08-07T09:28:05;8.45;;;2.50;;
17330;SDS011;8783;52.448;4.638;2023-08-07T09:30:32;8.70;;;2.38;;
17330;SDS011;8783;52.448;4.638;2023-08-07T09:33:00;13.60;;;2.85;;
17330;SDS011;8783;52.448;4.638;2023-08-07T09:35:26;7.53;;;2.88;;
17330;SDS011;8783;52.448;4.638;2023-08-07T09:37:54;10.13;;;2.65;;
17330;SDS011;8783;52.448;4.638;2023-08-07T09:40:24;9.07;;;2.85;;
17330;SDS011;8783;52.448;4.638;2023-08-07T09:42:50;8.85;;;3.03;;
17330;SDS011;8783;52.448;4.638;2023-08-07T09:48:02;9.65;;;2.67;;
17330;SDS011;8783;52.448;4.638;2023-08-07T09:50:36;7.15;;;2.35;;
17330;SDS011;8783;52.448;4.638;2023-08-07T09:53:02;8.68;;;2.47;;
17330;SDS011;8783;52.448;4.638;2023-08-07T09:55:27;12.48;;;3.40;;
17330;SDS011;8783;52.448;4.638;2023-08-07T09:57:53;14.82;;;3.78;;
17330;SDS011;8783;52.448;4.638;2023-08-07T10:00:19;11.35;;;3.47;;
17330;SDS011;8783;52.448;4.638;2023-08-07T10:02:50;11.55;;;3.13;;
17330;SDS011;8783;52.448;4.638;2023-08-07T10:05:16;11.82;;;3.55;;
17330;SDS011;8783;52.448;4.638;2023-08-07T10:07:42;11.57;;;3.20;;
17330;SDS011;8783;52.448;4.638;2023-08-07T10:10:14;11.02;;;3.50;;
17330;SDS011;8783;52.448;4.638;2023-08-07T10:12:42;14.00;;;3.92;;
17330;SDS011;8783;52.448;4.638;2023-08-07T10:15:11;12.00;;;3.28;;
17330;SDS011;8783;52.448;4.638;2023-08-07T10:17:36;13.13;;;3.50;;
17330;SDS011;8783;52.448;4.638;2023-08-07T10:20:02;11.10;;;3.53;;
17330;SDS011;8783;52.448;4.638;2023-08-07T10:22:30;13.20;;;3.17;;
17330;SDS011;8783;52.448;4.638;2023-08-07T10:24:57;15.77;;;3.33;;
17330;SDS011;8783;52.448;4.638;2023-08-07T10:27:26;10.35;;;2.70;;
17330;SDS011;8783;52.448;4.638;2023-08-07T10:29:54;8.85;;;2.83;;
17330;SDS011;8783;52.448;4.638;2023-08-07T10:32:23;10.32;;;3.28;;
17330;SDS011;8783;52.448;4.638;2023-08-07T10:34:54;10.88;;;3.30;;
17330;SDS011;8783;52.448;4.638;2023-08-07T10:37:46;6.32;;;2.40;;
17330;SDS011;8783;52.448;4.638;2023-08-07T10:40:14;8.70;;;2.53;;
17330;SDS011;8783;52.448;4.638;2023-08-07T10:42:52;8.90;;;2.50;;
17330;SDS011;8783;52.448;4.638;2023-08-07T10:45:22;5.40;;;1.75;;
17330;SDS011;8783;52.448;4.638;2023-08-07T10:48:01;10.57;;;2.22;;
17330;SDS011;8783;52.448;4.638;2023-08-07T10:50:34;7.10;;;2.17;;
17330;SDS011;8783;52.448;4.638;2023-08-07T10:53:03;8.02;;;2.38;;
17330;SDS011;8783;52.448;4.638;2023-08-07T10:55:44;10.10;;;2.53;;
17330;SDS011;8783;52.448;4.638;2023-08-07T10:58:29;7.70;;;2.08;;
17330;SDS011;8783;52.448;4.638;2023-08-07T11:03:52;9.38;;;2.40;;
17330;SDS011;8783;52.448;4.638;2023-08-07T11:06:28;6.53;;;2.58;;
17330;SDS011;8783;52.448;4.638;2023-08-07T11:08:58;6.97;;;2.30;;
17330;SDS011;8783;52.448;4.638;2023-08-07T11:11:28;10.23;;;2.47;;
17330;SDS011;8783;52.448;4.638;2023-08-07T11:13:55;8.38;;;2.20;;
17330;SDS011;8783;52.448;4.638;2023-08-07T11:16:21;8.27;;;2.40;;
17330;SDS011;8783;52.448;4.638;2023-08-07T11:18:47;8.88;;;2.25;;
17330;SDS011;8783;52.448;4.638;2023-08-07T11:21:14;7.53;;;2.30;;
17330;SDS011;8783;52.448;4.638;2023-08-07T11:23:39;7.22;;;2.10;;
17330;SDS011;8783;52.448;4.638;2023-08-07T11:26:09;8.68;;;2.13;;
17330;SDS011;8783;52.448;4.638;2023-08-07T11:28:35;9.75;;;2.83;;
17330;SDS011;8783;52.448;4.638;2023-08-07T11:31:01;8.50;;;2.25;;
17330;SDS011;8783;52.448;4.638;2023-08-07T11:33:27;9.32;;;2.30;;
17330;SDS011;8783;52.448;4.638;2023-08-07T11:35:58;11.43;;;2.05;;
17330;SDS011;8783;52.448;4.638;2023-08-07T11:38:28;8.63;;;2.05;;
17330;SDS011;8783;52.448;4.638;2023-08-07T11:41:02;7.80;;;1.90;;
17330;SDS011;8783;52.448;4.638;2023-08-07T11:43:32;8.82;;;1.88;;
17330;SDS011;8783;52.448;4.638;2023-08-07T11:45:58;6.88;;;1.98;;
17330;SDS011;8783;52.448;4.638;2023-08-07T11:48:26;4.28;;;1.60;;
17330;SDS011;8783;52.448;4.638;2023-08-07T11:50:53;6.10;;;1.95;;
17330;SDS011;8783;52.448;4.638;2023-08-07T11:53:23;6.47;;;1.88;;
17330;SDS011;8783;52.448;4.638;2023-08-07T11:55:53;7.90;;;1.80;;
17330;SDS011;8783;52.448;4.638;2023-08-07T11:58:27;7.70;;;1.80;;
17330;SDS011;8783;52.448;4.638;2023-08-07T12:00:58;3.83;;;1.55;;
17330;SDS011;8783;52.448;4.638;2023-08-07T12:03:28;5.32;;;1.60;;
17330;SDS011;8783;52.448;4.638;2023-08-07T12:05:59;5.00;;;1.98;;
17330;SDS011;8783;52.448;4.638;2023-08-07T12:08:31;5.32;;;2.15;;
17330;SDS011;8783;52.448;4.638;2023-08-07T12:11:04;6.13;;;1.70;;
17330;SDS011;8783;52.448;4.638;2023-08-07T12:13:31;4.38;;;1.88;;
17330;SDS011;8783;52.448;4.638;2023-08-07T12:16:01;5.47;;;1.80;;
17330;SDS011;8783;52.448;4.638;2023-08-07T12:18:29;4.30;;;1.80;;
17330;SDS011;8783;52.448;4.638;2023-08-07T12:20:59;4.53;;;1.73;;
17330;SDS011;8783;52.448;4.638;2023-08-07T12:23:26;5.00;;;1.65;;
17330;SDS011;8783;52.448;4.638;2023-08-07T12:25:52;4.85;;;1.52;;
17330;SDS011;8783;52.448;4.638;2023-08-07T12:28:21;6.30;;;2.05;;
17330;SDS011;8783;52.448;4.638;2023-08-07T12:30:47;3.92;;;1.50;;
17330;SDS011;8783;52.448;4.638;2023-08-07T12:33:13;4.75;;;1.60;;
17330;SDS011;8783;52.448;4.638;2023-08-07T12:35:42;3.97;;;1.75;;
17330;SDS011;8783;52.448;4.638;2023-08-07T12:38:08;3.50;;;1.67;;
17330;SDS011;8783;52.448;4.638;2023-08-07T12:40:40;4.32;;;1.75;;
17330;SDS011;8783;52.448;4.638;2023-08-07T12:43:09;6.32;;;1.92;;
17330;SDS011;8783;52.448;4.638;2023-08-07T12:45:35;6.88;;;1.70;;
17330;SDS011;8783;52.448;4.638;2023-08-07T12:48:04;4.00;;;1.80;;
17330;SDS011;8783;52.448;4.638;2023-08-07T12:50:32;4.75;;;1.98;;
17330;SDS011;8783;52.448;4.638;2023-08-07T12:52:58;3.85;;;1.55;;
17330;SDS011;8783;52.448;4.638;2023-08-07T12:55:25;5.38;;;1.77;;
17330;SDS011;8783;52.448;4.638;2023-08-07T12:57:54;6.15;;;1.80;;
17330;SDS011;8783;52.448;4.638;2023-08-07T13:00:20;5.13;;;1.75;;
17330;SDS011;8783;52.448;4.638;2023-08-07T13:02:47;7.50;;;2.03;;
17330;SDS011;8783;52.448;4.638;2023-08-07T13:05:14;6.30;;;1.77;;
17330;SDS011;8783;52.448;4.638;2023-08-07T13:07:42;5.10;;;1.60;;
17330;SDS011;8783;52.448;4.638;2023-08-07T13:10:09;6.10;;;1.90;;
17330;SDS011;8783;52.448;4.638;2023-08-07T13:12:39;5.03;;;1.52;;
17330;SDS011;8783;52.448;4.638;2023-08-07T13:15:08;4.60;;;1.75;;
17330;SDS011;8783;52.448;4.638;2023-08-07T13:17:35;6.30;;;1.75;;
17330;SDS011;8783;52.448;4.638;2023-08-07T13:20:02;4.72;;;1.67;;
17330;SDS011;8783;52.448;4.638;2023-08-07T13:22:33;5.00;;;1.90;;
17330;SDS011;8783;52.448;4.638;2023-08-07T13:24:59;5.85;;;1.52;;
17330;SDS011;8783;52.448;4.638;2023-08-07T13:27:25;3.60;;;1.42;;
17330;SDS011;8783;52.448;4.638;2023-08-07T13:29:50;3.72;;;1.70;;
17330;SDS011;8783;52.448;4.638;2023-08-07T13:32:18;4.10;;;1.60;;
17330;SDS011;8783;52.448;4.638;2023-08-07T13:34:47;4.93;;;1.67;;
17330;SDS011;8783;52.448;4.638;2023-08-07T13:37:13;4.68;;;1.92;;
17330;SDS011;8783;52.448;4.638;2023-08-07T13:39:41;5.03;;;1.52;;
17330;SDS011;8783;52.448;4.638;2023-08-07T13:42:07;5.25;;;1.92;;
17330;SDS011;8783;52.448;4.638;2023-08-07T13:44:36;5.07;;;1.70;;
17330;SDS011;8783;52.448;4.638;2023-08-07T13:47:02;4.07;;;1.98;;
17330;SDS011;8783;52.448;4.638;2023-08-07T13:49:29;3.60;;;1.42;;
17330;SDS011;8783;52.448;4.638;2023-08-07T13:51:55;3.10;;;1.73;;
17330;SDS011;8783;52.448;4.638;2023-08-07T13:54:21;5.18;;;1.88;;
17330;SDS011;8783;52.448;4.638;2023-08-07T13:56:47;4.40;;;1.77;;
17330;SDS011;8783;52.448;4.638;2023-08-07T13:59:13;6.10;;;1.80;;
17330;SDS011;8783;52.448;4.638;2023-08-07T14:01:38;2.88;;;1.63;;
17330;SDS011;8783;52.448;4.638;2023-08-07T14:04:07;6.82;;;2.35;;
17330;SDS011;8783;52.448;4.638;2023-08-07T14:06:33;5.97;;;1.77;;
17330;SDS011;8783;52.448;4.638;2023-08-07T14:08:58;6.38;;;2.40;;
17330;SDS011;8783;52.448;4.638;2023-08-07T14:11:24;4.50;;;2.00;;
17330;SDS011;8783;52.448;4.638;2023-08-07T14:13:55;3.75;;;1.80;;
17330;SDS011;8783;52.448;4.638;2023-08-07T14:16:23;5.30;;;2.17;;
17330;SDS011;8783;52.448;4.638;2023-08-07T14:18:50;4.20;;;1.85;;
17330;SDS011;8783;52.448;4.638;2023-08-07T14:21:16;4.60;;;1.98;;
17330;SDS011;8783;52.448;4.638;2023-08-07T14:23:41;4.72;;;2.40;;
17330;SDS011;8783;52.448;4.638;2023-08-07T14:26:10;3.72;;;2.10;;
17330;SDS011;8783;52.448;4.638;2023-08-07T14:28:36;6.95;;;2.60;;
17330;SDS011;8783;52.448;4.638;2023-08-07T14:31:05;4.43;;;2.38;;
17330;SDS011;8783;52.448;4.638;2023-08-07T14:33:32;5.35;;;2.15;;
17330;SDS011;8783;52.448;4.638;2023-08-07T14:35:58;13.18;;;2.45;;
17330;SDS011;8783;52.448;4.638;2023-08-07T14:38:25;7.30;;;2.20;;
17330;SDS011;8783;52.448;4.638;2023-08-07T14:40:50;8.75;;;2.35;;
17330;SDS011;8783;52.448;4.638;2023-08-07T14:43:16;14.35;;;2.53;;
17330;SDS011;8783;52.448;4.638;2023-08-07T14:45:42;8.75;;;2.50;;
17330;SDS011;8783;52.448;4.638;2023-08-07T14:48:07;7.90;;;2.63;;
17330;SDS011;8783;52.448;4.638;2023-08-07T14:50:33;3.95;;;2.03;;
17330;SDS011;8783;52.448;4.638;2023-08-07T14:52:59;8.98;;;2.72;;
17330;SDS011;8783;52.448;4.638;2023-08-07T14:55:27;6.03;;;1.98;;
17330;SDS011;8783;52.448;4.638;2023-08-07T14:57:53;7.57;;;2.00;;
17330;SDS011;8783;52.448;4.638;2023-08-07T15:00:19;6.55;;;2.00;;
17330;SDS011;8783;52.448;4.638;2023-08-07T15:02:45;3.80;;;1.83;;
17330;SDS011;8783;52.448;4.638;2023-08-07T15:05:11;3.97;;;2.00;;